sensor_id;sensor_type;location;lat;lon;timestamp;temperature;humidity
35305;DHT22;26433;48.034;-1.764;2023-05-29T05:05:14;16.00;78.80
35305;DHT22;26433;48.034;-1.764;2023-05-29T05:10:18;16.10;79.10
35305;DHT22;26433;48.034;-1.764;2023-05-29T05:15:22;16.10;79.20
35305;DHT22;26433;48.034;-1.764;2023-05-29T05:20:27;16.20;79.30
35305;DHT22;26433;48.034;-1.764;2023-05-29T05:25:31;16.20;79.30
35305;DHT22;26433;48.034;-1.764;2023-05-29T05:30:36;16.30;79.30
35305;DHT22;26433;48.034;-1.764;2023-05-29T05:35:42;16.40;79.30
35305;DHT22;26433;48.034;-1.764;2023-05-29T05:40:46;16.50;79.20
35305;DHT22;26433;48.034;-1.764;2023-05-29T05:45:50;16.60;79.10
35305;DHT22;26433;48.034;-1.764;2023-05-29T05:50:56;16.60;79.30
35305;DHT22;26433;48.034;-1.764;2023-05-29T05:55:59;16.60;79.20
35305;DHT22;26433;48.034;-1.764;2023-05-29T06:01:04;16.70;78.70
35305;DHT22;26433;48.034;-1.764;2023-05-29T06:06:11;16.70;78.40
35305;DHT22;26433;48.034;-1.764;2023-05-29T06:11:15;16.80;79.00
35305;DHT22;26433;48.034;-1.764;2023-05-29T06:16:20;16.90;78.40
35305;DHT22;26433;48.034;-1.764;2023-05-29T06:21:25;17.00;78.20
35305;DHT22;26433;48.034;-1.764;2023-05-29T06:26:29;17.10;77.90
35305;DHT22;26433;48.034;-1.764;2023-05-29T06:31:33;17.20;77.60
35305;DHT22;26433;48.034;-1.764;2023-05-29T06:36:38;17.20;77.40
35305;DHT22;26433;48.034;-1.764;2023-05-29T06:41:42;17.40;77.20
35305;DHT22;26433;48.034;-1.764;2023-05-29T06:46:50;17.50;76.90
35305;DHT22;26433;48.034;-1.764;2023-05-29T06:51:55;17.80;75.80
35305;DHT22;26433;48.034;-1.764;2023-05-29T06:56:59;17.80;76.30
35305;DHT22;26433;48.034;-1.764;2023-05-29T07:02:12;18.00;75.60
35305;DHT22;26433;48.034;-1.764;2023-05-29T07:07:18;18.20;75.00
35305;DHT22;26433;48.034;-1.764;2023-05-29T07:12:22;18.50;74.40
35305;DHT22;26433;48.034;-1.764;2023-05-29T07:17:26;18.70;73.70
35305;DHT22;26433;48.034;-1.764;2023-05-29T07:22:35;18.80;73.30
35305;DHT22;26433;48.034;-1.764;2023-05-29T07:27:39;18.90;73.00
35305;DHT22;26433;48.034;-1.764;2023-05-29T07:32:43;19.10;72.50
35305;DHT22;26433;48.034;-1.764;2023-05-29T07:37:49;19.30;72.00
35305;DHT22;26433;48.034;-1.764;2023-05-29T07:42:54;19.40;71.70
35305;DHT22;26433;48.034;-1.764;2023-05-29T07:48:00;19.60;71.30
35305;DHT22;26433;48.034;-1.764;2023-05-29T07:53:05;19.70;70.90
35305;DHT22;26433;48.034;-1.764;2023-05-29T07:58:10;19.80;70.70
35305;DHT22;26433;48.034;-1.764;2023-05-29T08:03:16;19.90;70.30
35305;DHT22;26433;48.034;-1.764;2023-05-29T08:08:24;20.10;70.00
35305;DHT22;26433;48.034;-1.764;2023-05-29T08:13:29;20.30;69.60
35305;DHT22;26433;48.034;-1.764;2023-05-29T08:18:33;20.60;68.90
35305;DHT22;26433;48.034;-1.764;2023-05-29T08:23:39;20.90;68.10
35305;DHT22;26433;48.034;-1.764;2023-05-29T08:28:43;21.10;67.60
35305;DHT22;26433;48.034;-1.764;2023-05-29T08:33:46;21.20;67.20
35305;DHT22;26433;48.034;-1.764;2023-05-29T08:38:51;21.40;66.80
35305;DHT22;26433;48.034;-1.764;2023-05-29T08:43:56;21.50;66.30
35305;DHT22;26433;48.034;-1.764;2023-05-29T08:49:01;21.70;65.80
35305;DHT22;26433;48.034;-1.764;2023-05-29T08:54:07;21.90;65.10
35305;DHT22;26433;48.034;-1.764;2023-05-29T08:59:11;22.00;65.00
35305;DHT22;26433;48.034;-1.764;2023-05-29T09:04:15;22.10;64.70
35305;DHT22;26433;48.034;-1.764;2023-05-29T09:09:20;22.30;64.30
35305;DHT22;26433;48.034;-1.764;2023-05-29T09:14:35;22.60;63.60
35305;DHT22;26433;48.034;-1.764;2023-05-29T09:19:40;23.10;62.70
35305;DHT22;26433;48.034;-1.764;2023-05-29T09:24:48;23.50;61.90
35305;DHT22;26433;48.034;-1.764;2023-05-29T09:29:53;23.90;61.10
35305;DHT22;26433;48.034;-1.764;2023-05-29T09:35:00;24.60;60.10
35305;DHT22;26433;48.034;-1.764;2023-05-29T09:40:07;25.20;59.00
35305;DHT22;26433;48.034;-1.764;2023-05-29T09:45:12;25.90;58.10
35305;DHT22;26433;48.034;-1.764;2023-05-29T09:50:18;26.20;57.50
35305;DHT22;26433;48.034;-1.764;2023-05-29T09:55:25;26.20;57.90
35305;DHT22;26433;48.034;-1.764;2023-05-29T10:00:30;26.50;57.20
35305;DHT22;26433;48.034;-1.764;2023-05-29T10:05:34;27.00;56.70
35305;DHT22;26433;48.034;-1.764;2023-05-29T10:10:41;27.20;56.50
35305;DHT22;26433;48.034;-1.764;2023-05-29T10:15:50;27.50;56.10
35305;DHT22;26433;48.034;-1.764;2023-05-29T10:20:57;27.80;55.60
35305;DHT22;26433;48.034;-1.764;2023-05-29T10:26:14;28.30;54.90
35305;DHT22;26433;48.034;-1.764;2023-05-29T10:31:26;28.90;54.00
35305;DHT22;26433;48.034;-1.764;2023-05-29T10:36:35;29.40;53.30
35305;DHT22;26433;48.034;-1.764;2023-05-29T10:41:43;29.60;52.90
35305;DHT22;26433;48.034;-1.764;2023-05-29T10:47:05;29.70;52.80
35305;DHT22;26433;48.034;-1.764;2023-05-29T10:52:11;29.60;52.50
35305;DHT22;26433;48.034;-1.764;2023-05-29T10:57:16;29.40;52.50
35305;DHT22;26433;48.034;-1.764;2023-05-29T11:02:22;29.20;52.60
35305;DHT22;26433;48.034;-1.764;2023-05-29T11:07:35;28.70;53.10
35305;DHT22;26433;48.034;-1.764;2023-05-29T11:12:57;28.40;53.60
35305;DHT22;26433;48.034;-1.764;2023-05-29T11:18:06;28.20;53.70
35305;DHT22;26433;48.034;-1.764;2023-05-29T11:23:15;28.20;53.80
35305;DHT22;26433;48.034;-1.764;2023-05-29T11:28:21;28.70;53.00
35305;DHT22;26433;48.034;-1.764;2023-05-29T11:33:26;29.40;52.00
35305;DHT22;26433;48.034;-1.764;2023-05-29T11:38:31;30.10;51.10
35305;DHT22;26433;48.034;-1.764;2023-05-29T11:43:36;30.40;50.50
35305;DHT22;26433;48.034;-1.764;2023-05-29T11:48:45;30.90;49.80
35305;DHT22;26433;48.034;-1.764;2023-05-29T11:53:49;31.50;49.10
35305;DHT22;26433;48.034;-1.764;2023-05-29T11:58:58;31.90;48.90
35305;DHT22;26433;48.034;-1.764;2023-05-29T12:04:13;32.10;48.40
35305;DHT22;26433;48.034;-1.764;2023-05-29T12:09:25;32.20;48.10
35305;DHT22;26433;48.034;-1.764;2023-05-29T12:14:31;32.60;47.60
35305;DHT22;26433;48.034;-1.764;2023-05-29T12:19:34;32.60;47.70
35305;DHT22;26433;48.034;-1.764;2023-05-29T12:24:38;32.80;47.60
35305;DHT22;26433;48.034;-1.764;2023-05-29T12:29:46;33.00;47.20
35305;DHT22;26433;48.034;-1.764;2023-05-29T12:34:51;33.40;47.00
35305;DHT22;26433;48.034;-1.764;2023-05-29T12:40:11;33.70;46.60
35305;DHT22;26433;48.034;-1.764;2023-05-29T12:45:17;34.00;46.00
35305;DHT22;26433;48.034;-1.764;2023-05-29T12:50:22;34.10;46.00
35305;DHT22;26433;48.034;-1.764;2023-05-29T12:55:27;34.30;45.60
35305;DHT22;26433;48.034;-1.764;2023-05-29T13:00:33;34.10;45.40
35305;DHT22;26433;48.034;-1.764;2023-05-29T13:05:37;33.90;45.50
35305;DHT22;26433;48.034;-1.764;2023-05-29T13:10:41;34.10;45.40
35305;DHT22;26433;48.034;-1.764;2023-05-29T13:15:49;33.90;45.00
35305;DHT22;26433;48.034;-1.764;2023-05-29T13:20:52;33.80;44.90
35305;DHT22;26433;48.034;-1.764;2023-05-29T13:25:56;33.50;45.10
35305;DHT22;26433;48.034;-1.764;2023-05-29T13:31:01;33.30;45.20
35305;DHT22;26433;48.034;-1.764;2023-05-29T13:36:05;33.50;45.00
35305;DHT22;26433;48.034;-1.764;2023-05-29T13:41:09;33.60;44.80
35305;DHT22;26433;48.034;-1.764;2023-05-29T13:46:14;33.50;44.70
35305;DHT22;26433;48.034;-1.764;2023-05-29T13:51:18;33.30;44.70
35305;DHT22;26433;48.034;-1.764;2023-05-29T13:56:21;33.10;44.80
35305;DHT22;26433;48.034;-1.764;2023-05-29T14:01:26;32.70;45.20
35305;DHT22;26433;48.034;-1.764;2023-05-29T14:06:30;32.60;45.40
35305;DHT22;26433;48.034;-1.764;2023-05-29T14:11:34;32.50;45.30
35305;DHT22;26433;48.034;-1.764;2023-05-29T14:16:40;32.40;45.10
35305;DHT22;26433;48.034;-1.764;2023-05-29T14:21:45;32.30;45.20
35305;DHT22;26433;48.034;-1.764;2023-05-29T14:26:48;32.00;45.20
35305;DHT22;26433;48.034;-1.764;2023-05-29T14:31:54;31.80;45.40
35305;DHT22;26433;48.034;-1.764;2023-05-29T14:36:57;31.70;45.60
35305;DHT22;26433;48.034;-1.764;2023-05-29T14:42:01;31.50;45.60
35305;DHT22;26433;48.034;-1.764;2023-05-29T14:47:06;31.20;45.80
35305;DHT22;26433;48.034;-1.764;2023-05-29T14:52:10;31.00;45.80
35305;DHT22;26433;48.034;-1.764;2023-05-29T14:57:14;30.80;45.90
35305;DHT22;26433;48.034;-1.764;2023-05-29T15:02:19;30.70;45.90
35305;DHT22;26433;48.034;-1.764;2023-05-29T15:07:23;30.50;45.70
35305;DHT22;26433;48.034;-1.764;2023-05-29T15:12:26;30.20;45.50
35305;DHT22;26433;48.034;-1.764;2023-05-29T15:17:31;30.00;45.80
35305;DHT22;26433;48.034;-1.764;2023-05-29T15:22:35;29.80;45.80
35305;DHT22;26433;48.034;-1.764;2023-05-29T15:27:39;29.50;45.80
35305;DHT22;26433;48.034;-1.764;2023-05-29T15:32:44;29.30;46.00
35305;DHT22;26433;48.034;-1.764;2023-05-29T15:37:48;29.10;46.20
35305;DHT22;26433;48.034;-1.764;2023-05-29T15:42:52;28.90;46.40
35305;DHT22;26433;48.034;-1.764;2023-05-29T15:47:57;28.80;46.50
35305;DHT22;26433;48.034;-1.764;2023-05-29T15:53:01;28.60;46.60
35305;DHT22;26433;48.034;-1.764;2023-05-29T15:58:04;28.40;46.90
35305;DHT22;26433;48.034;-1.764;2023-05-29T16:03:10;28.20;46.90
35305;DHT22;26433;48.034;-1.764;2023-05-29T16:08:13;28.00;47.00
35305;DHT22;26433;48.034;-1.764;2023-05-29T16:13:17;27.90;47.00
35305;DHT22;26433;48.034;-1.764;2023-05-29T16:18:22;27.80;47.30
35305;DHT22;26433;48.034;-1.764;2023-05-29T16:23:26;27.70;47.50
35305;DHT22;26433;48.034;-1.764;2023-05-29T16:28:30;27.60;47.80
35305;DHT22;26433;48.034;-1.764;2023-05-29T16:33:35;27.30;48.40
35305;DHT22;26433;48.034;-1.764;2023-05-29T16:38:39;27.10;48.60
35305;DHT22;26433;48.034;-1.764;2023-05-29T16:43:43;27.00;49.00
35305;DHT22;26433;48.034;-1.764;2023-05-29T16:48:48;26.90;49.30
35305;DHT22;26433;48.034;-1.764;2023-05-29T16:53:52;26.70;49.60
35305;DHT22;26433;48.034;-1.764;2023-05-29T16:58:55;26.60;49.80
35305;DHT22;26433;48.034;-1.764;2023-05-29T17:04:00;26.50;50.20
35305;DHT22;26433;48.034;-1.764;2023-05-29T17:09:04;26.40;50.40
35305;DHT22;26433;48.034;-1.764;2023-05-29T17:14:10;26.20;50.60
35305;DHT22;26433;48.034;-1.764;2023-05-29T17:19:16;26.20;50.90
35305;DHT22;26433;48.034;-1.764;2023-05-29T17:24:20;26.10;51.20
35305;DHT22;26433;48.034;-1.764;2023-05-29T17:29:24;25.90;51.50
35305;DHT22;26433;48.034;-1.764;2023-05-29T17:34:29;25.80;51.90
35305;DHT22;26433;48.034;-1.764;2023-05-29T17:39:33;25.60;52.20
35305;DHT22;26433;48.034;-1.764;2023-05-29T17:44:37;25.50;52.60
35305;DHT22;26433;48.034;-1.764;2023-05-29T17:49:42;25.40;52.80
35305;DHT22;26433;48.034;-1.764;2023-05-29T17:54:45;25.20;53.20
35305;DHT22;26433;48.034;-1.764;2023-05-29T17:59:49;25.00;53.50
35305;DHT22;26433;48.034;-1.764;2023-05-29T18:04:54;24.80;53.90
35305;DHT22;26433;48.034;-1.764;2023-05-29T18:09:57;24.70;54.20
35305;DHT22;26433;48.034;-1.764;2023-05-29T18:15:01;24.50;54.50
35305;DHT22;26433;48.034;-1.764;2023-05-29T18:20:07;24.40;54.80
35305;DHT22;26433;48.034;-1.764;2023-05-29T18:25:11;24.30;55.10
35305;DHT22;26433;48.034;-1.764;2023-05-29T18:30:16;24.20;55.30
35305;DHT22;26433;48.034;-1.764;2023-05-29T18:35:22;24.10;55.30
35305;DHT22;26433;48.034;-1.764;2023-05-29T18:40:25;24.10;55.70
35305;DHT22;26433;48.034;-1.764;2023-05-29T18:45:29;23.90;55.70
35305;DHT22;26433;48.034;-1.764;2023-05-29T18:50:34;23.80;56.20
35305;DHT22;26433;48.034;-1.764;2023-05-29T18:55:38;23.60;56.50
35305;DHT22;26433;48.034;-1.764;2023-05-29T19:00:41;23.50;56.50
35305;DHT22;26433;48.034;-1.764;2023-05-29T19:05:46;23.40;56.80
35305;DHT22;26433;48.034;-1.764;2023-05-29T19:10:50;23.30;57.10
35305;DHT22;26433;48.034;-1.764;2023-05-29T19:15:54;23.10;57.20
35305;DHT22;26433;48.034;-1.764;2023-05-29T19:20:59;23.00;57.50
35305;DHT22;26433;48.034;-1.764;2023-05-29T19:26:03;22.90;57.80
35305;DHT22;26433;48.034;-1.764;2023-05-29T19:31:07;22.70;58.00
35305;DHT22;26433;48.034;-1.764;2023-05-29T19:36:13;22.50;58.50
35305;DHT22;26433;48.034;-1.764;2023-05-29T19:41:17;22.30;58.90
35305;DHT22;26433;48.034;-1.764;2023-05-29T19:46:20;22.10;59.30
35305;DHT22;26433;48.034;-1.764;2023-05-29T19:51:25;21.90;59.50
35305;DHT22;26433;48.034;-1.764;2023-05-29T19:56:29;21.70;59.80
35305;DHT22;26433;48.034;-1.764;2023-05-29T20:01:33;21.60;59.90
35305;DHT22;26433;48.034;-1.764;2023-05-29T20:06:38;21.50;60.10
35305;DHT22;26433;48.034;-1.764;2023-05-29T20:11:43;21.30;60.30
35305;DHT22;26433;48.034;-1.764;2023-05-29T20:16:46;21.20;60.50
35305;DHT22;26433;48.034;-1.764;2023-05-29T20:21:52;21.10;60.80
35305;DHT22;26433;48.034;-1.764;2023-05-29T20:26:55;20.90;61.00
35305;DHT22;26433;48.034;-1.764;2023-05-29T20:31:59;20.70;61.40
35305;DHT22;26433;48.034;-1.764;2023-05-29T20:37:04;20.60;61.60
35305;DHT22;26433;48.034;-1.764;2023-05-29T20:42:09;20.50;61.70
35305;DHT22;26433;48.034;-1.764;2023-05-29T20:47:17;20.40;62.00
35305;DHT22;26433;48.034;-1.764;2023-05-29T20:52:22;20.30;62.10
35305;DHT22;26433;48.034;-1.764;2023-05-29T20:57:25;19.70;71.00
35305;DHT22;26433;48.034;-1.764;2023-05-29T21:02:29;20.10;62.30
35305;DHT22;26433;48.034;-1.764;2023-05-29T21:07:34;20.00;62.50
35305;DHT22;26433;48.034;-1.764;2023-05-29T21:12:38;19.90;62.70
35305;DHT22;26433;48.034;-1.764;2023-05-29T21:17:42;19.90;62.80
35305;DHT22;26433;48.034;-1.764;2023-05-29T21:22:47;19.70;62.70
35305;DHT22;26433;48.034;-1.764;2023-05-29T21:27:51;19.70;63.20
35305;DHT22;26433;48.034;-1.764;2023-05-29T21:32:54;19.60;63.30
35305;DHT22;26433;48.034;-1.764;2023-05-29T21:37:59;19.50;63.50
35305;DHT22;26433;48.034;-1.764;2023-05-29T21:43:03;19.40;63.80
35305;DHT22;26433;48.034;-1.764;2023-05-29T21:48:07;19.30;63.90
35305;DHT22;26433;48.034;-1.764;2023-05-29T21:53:12;19.10;64.00
35305;DHT22;26433;48.034;-1.764;2023-05-29T21:58:19;19.10;64.30
35305;DHT22;26433;48.034;-1.764;2023-05-29T22:03:23;19.00;64.40
35305;DHT22;26433;48.034;-1.764;2023-05-29T22:08:39;18.90;64.50
35305;DHT22;26433;48.034;-1.764;2023-05-29T22:13:43;19.00;72.50
35305;DHT22;26433;48.034;-1.764;2023-05-29T22:18:47;18.70;64.90
35305;DHT22;26433;48.034;-1.764;2023-05-29T22:24:09;18.70;64.90
35305;DHT22;26433;48.034;-1.764;2023-05-29T22:29:13;18.60;65.20
